sensor_id;sensor_type;location;lat;lon;timestamp;pressure;altitude;pressure_sealevel;temperature;humidity
6567;BME280;3317;43.994;22.878;2022-10-26T00:00:43;101404.16;;;18.73;56.12
6567;BME280;3317;43.994;22.878;2022-10-26T00:03:10;101393.75;;;18.68;55.91
6567;BME280;3317;43.994;22.878;2022-10-26T00:05:37;101398.25;;;18.76;55.64
6567;BME280;3317;43.994;22.878;2022-10-26T00:08:04;101393.75;;;18.68;55.96
6567;BME280;3317;43.994;22.878;2022-10-26T00:10:33;101395.84;;;18.66;56.18
6567;BME280;3317;43.994;22.878;2022-10-26T00:13:03;101398.94;;;18.63;56.07
6567;BME280;3317;43.994;22.878;2022-10-26T00:15:31;101405.47;;;18.62;55.93
6567;BME280;3317;43.994;22.878;2022-10-26T00:17:58;101417.69;;;18.60;56.23
6567;BME280;3317;43.994;22.878;2022-10-26T00:20:24;101412.38;;;18.58;56.10
6567;BME280;3317;43.994;22.878;2022-10-26T00:22:51;101408.78;;;18.57;55.66
6567;BME280;3317;43.994;22.878;2022-10-26T00:25:19;101408.78;;;18.57;55.91
6567;BME280;3317;43.994;22.878;2022-10-26T00:27:45;101422.50;;;18.57;55.97
6567;BME280;3317;43.994;22.878;2022-10-26T00:30:14;101424.41;;;18.57;55.73
6567;BME280;3317;43.994;22.878;2022-10-26T00:32:41;101410.44;;;18.52;55.48
6567;BME280;3317;43.994;22.878;2022-10-26T00:35:08;101421.66;;;18.57;55.77
6567;BME280;3317;43.994;22.878;2022-10-26T00:37:35;101430.94;;;18.56;56.02
6567;BME280;3317;43.994;22.878;2022-10-26T00:40:02;101434.09;;;18.53;56.00
6567;BME280;3317;43.994;22.878;2022-10-26T00:42:29;101424.50;;;18.49;56.33
6567;BME280;3317;43.994;22.878;2022-10-26T00:45:19;101428.50;;;18.46;56.56
6567;BME280;3317;43.994;22.878;2022-10-26T00:47:52;101419.97;;;18.41;56.26
6567;BME280;3317;43.994;22.878;2022-10-26T00:50:21;101416.28;;;18.34;56.45
6567;BME280;3317;43.994;22.878;2022-10-26T00:52:52;101419.50;;;18.37;56.69
6567;BME280;3317;43.994;22.878;2022-10-26T00:55:21;101425.34;;;18.34;56.51
6567;BME280;3317;43.994;22.878;2022-10-26T00:57:50;101429.16;;;18.33;56.17
6567;BME280;3317;43.994;22.878;2022-10-26T01:00:18;101427.44;;;18.32;56.23
6567;BME280;3317;43.994;22.878;2022-10-26T01:02:48;101428.31;;;18.33;55.80
6567;BME280;3317;43.994;22.878;2022-10-26T01:05:17;101429.16;;;18.33;55.79
6567;BME280;3317;43.994;22.878;2022-10-26T01:07:46;101432.94;;;18.32;56.05
6567;BME280;3317;43.994;22.878;2022-10-26T01:10:14;101417.25;;;18.26;55.83
6567;BME280;3317;43.994;22.878;2022-10-26T01:12:41;101429.16;;;18.33;54.91
6567;BME280;3317;43.994;22.878;2022-10-26T01:15:09;101420.91;;;18.33;54.49
6567;BME280;3317;43.994;22.878;2022-10-26T01:17:53;101425.56;;;18.33;54.73
6567;BME280;3317;43.994;22.878;2022-10-26T01:23:30;101420.00;;;18.26;56.01
6567;BME280;3317;43.994;22.878;2022-10-26T01:26:16;101428.94;;;18.20;55.94
6567;BME280;3317;43.994;22.878;2022-10-26T01:29:24;101433.22;;;18.22;55.93
6567;BME280;3317;43.994;22.878;2022-10-26T01:31:59;101431.69;;;18.20;56.29
6567;BME280;3317;43.994;22.878;2022-10-26T01:34:33;101429.34;;;18.17;56.38
6567;BME280;3317;43.994;22.878;2022-10-26T01:37:07;101420.78;;;18.11;56.49
6567;BME280;3317;43.994;22.878;2022-10-26T01:39:38;101421.66;;;18.12;56.37
6567;BME280;3317;43.994;22.878;2022-10-26T01:42:07;101425.63;;;18.09;56.22
6567;BME280;3317;43.994;22.878;2022-10-26T01:44:37;101422.41;;;18.06;56.52
6567;BME280;3317;43.994;22.878;2022-10-26T01:47:11;101421.56;;;18.05;56.99
6567;BME280;3317;43.994;22.878;2022-10-26T01:49:40;101425.69;;;18.01;56.38
6567;BME280;3317;43.994;22.878;2022-10-26T01:52:09;101416.56;;;17.85;56.68
6567;BME280;3317;43.994;22.878;2022-10-26T01:54:37;101418.97;;;17.88;56.87
6567;BME280;3317;43.994;22.878;2022-10-26T01:57:06;101428.00;;;17.89;57.20
6567;BME280;3317;43.994;22.878;2022-10-26T01:59:57;101429.22;;;17.86;57.11
6567;BME280;3317;43.994;22.878;2022-10-26T02:02:54;101430.47;;;17.84;57.64
6567;BME280;3317;43.994;22.878;2022-10-26T02:05:44;101435.47;;;17.80;57.88
6567;BME280;3317;43.994;22.878;2022-10-26T02:08:22;101429.50;;;17.77;57.76
6567;BME280;3317;43.994;22.878;2022-10-26T02:11:00;101430.75;;;17.74;57.85
6567;BME280;3317;43.994;22.878;2022-10-26T02:13:39;101428.19;;;17.72;58.05
6567;BME280;3317;43.994;22.878;2022-10-26T02:16:16;101428.56;;;17.69;58.09
6567;BME280;3317;43.994;22.878;2022-10-26T02:18:51;101415.06;;;17.59;58.02
6567;BME280;3317;43.994;22.878;2022-10-26T02:21:23;101433.34;;;17.67;58.08
6567;BME280;3317;43.994;22.878;2022-10-26T02:23:54;101431.84;;;17.65;57.79
6567;BME280;3317;43.994;22.878;2022-10-26T02:26:26;101437.50;;;17.63;57.60
6567;BME280;3317;43.994;22.878;2022-10-26T02:28:57;101434.25;;;17.59;58.36
6567;BME280;3317;43.994;22.878;2022-10-26T02:31:26;101387.75;;;17.28;58.86
6567;BME280;3317;43.994;22.878;2022-10-26T02:34:00;101437.09;;;17.51;59.09
6567;BME280;3317;43.994;22.878;2022-10-26T02:36:30;101431.78;;;17.50;58.80
6567;BME280;3317;43.994;22.878;2022-10-26T02:39:02;101433.72;;;17.41;59.22
6567;BME280;3317;43.994;22.878;2022-10-26T02:41:31;101427.75;;;17.37;58.77
6567;BME280;3317;43.994;22.878;2022-10-26T02:44:04;101422.47;;;17.36;59.32
6567;BME280;3317;43.994;22.878;2022-10-26T02:46:35;101424.84;;;17.39;59.11
6567;BME280;3317;43.994;22.878;2022-10-26T02:49:03;101436.84;;;17.38;58.98
6567;BME280;3317;43.994;22.878;2022-10-26T02:51:36;101435.13;;;17.37;59.18
6567;BME280;3317;43.994;22.878;2022-10-26T02:54:18;101432.06;;;17.31;59.25
6567;BME280;3317;43.994;22.878;2022-10-26T02:56:53;101440.00;;;17.26;59.79
6567;BME280;3317;43.994;22.878;2022-10-26T02:59:22;101440.53;;;17.22;60.06
6567;BME280;3317;43.994;22.878;2022-10-26T03:01:52;101445.59;;;17.10;60.57
6567;BME280;3317;43.994;22.878;2022-10-26T03:04:27;101448.13;;;17.11;60.21
6567;BME280;3317;43.994;22.878;2022-10-26T03:06:54;101449.16;;;17.10;60.53
6567;BME280;3317;43.994;22.878;2022-10-26T03:09:21;101446.78;;;17.07;60.67
6567;BME280;3317;43.994;22.878;2022-10-26T03:11:48;101452.44;;;17.06;60.73
6567;BME280;3317;43.994;22.878;2022-10-26T03:14:15;101451.75;;;17.03;60.39
6567;BME280;3317;43.994;22.878;2022-10-26T03:16:42;101435.19;;;16.88;61.29
6567;BME280;3317;43.994;22.878;2022-10-26T03:19:09;101456.91;;;16.98;60.70
6567;BME280;3317;43.994;22.878;2022-10-26T03:21:37;101452.78;;;16.94;61.11
6567;BME280;3317;43.994;22.878;2022-10-26T03:24:07;101452.25;;;16.99;60.45
6567;BME280;3317;43.994;22.878;2022-10-26T03:26:34;101444.94;;;16.99;60.64
6567;BME280;3317;43.994;22.878;2022-10-26T03:29:01;101442.72;;;16.95;60.68
6567;BME280;3317;43.994;22.878;2022-10-26T03:31:28;101447.53;;;16.93;61.14
6567;BME280;3317;43.994;22.878;2022-10-26T03:33:55;101444.28;;;16.89;61.20
6567;BME280;3317;43.994;22.878;2022-10-26T03:36:22;101378.78;;;16.47;61.83
6567;BME280;3317;43.994;22.878;2022-10-26T03:38:50;101450.28;;;16.84;61.37
6567;BME280;3317;43.994;22.878;2022-10-26T03:41:17;101447.03;;;16.81;61.84
6567;BME280;3317;43.994;22.878;2022-10-26T03:43:45;101448.75;;;16.82;61.36
6567;BME280;3317;43.994;22.878;2022-10-26T03:46:12;101463.47;;;16.81;61.77
6567;BME280;3317;43.994;22.878;2022-10-26T03:48:39;101457.81;;;16.82;61.33
6567;BME280;3317;43.994;22.878;2022-10-26T03:51:06;101460.56;;;16.82;61.16
6567;BME280;3317;43.994;22.878;2022-10-26T03:53:33;101450.44;;;16.83;61.17
6567;BME280;3317;43.994;22.878;2022-10-26T03:56:02;101440.22;;;16.77;61.77
6567;BME280;3317;43.994;22.878;2022-10-26T03:58:29;101457.53;;;16.77;61.77
6567;BME280;3317;43.994;22.878;2022-10-26T04:00:55;101452.56;;;16.72;61.78
6567;BME280;3317;43.994;22.878;2022-10-26T04:03:22;101457.38;;;16.70;61.95
6567;BME280;3317;43.994;22.878;2022-10-26T04:05:49;101466.59;;;16.69;61.69
6567;BME280;3317;43.994;22.878;2022-10-26T04:08:16;101466.59;;;16.69;61.42
6567;BME280;3317;43.994;22.878;2022-10-26T04:10:44;101449.03;;;16.55;61.46
6567;BME280;3317;43.994;22.878;2022-10-26T04:13:13;101464.94;;;16.60;61.87
6567;BME280;3317;43.994;22.878;2022-10-26T04:15:40;101468.00;;;16.57;61.90
6567;BME280;3317;43.994;22.878;2022-10-26T04:18:08;101468.19;;;16.55;62.22
6567;BME280;3317;43.994;22.878;2022-10-26T04:20:38;101475.53;;;16.55;61.89
6567;BME280;3317;43.994;22.878;2022-10-26T04:23:08;101471.28;;;16.52;62.06
6567;BME280;3317;43.994;22.878;2022-10-26T04:25:36;101479.31;;;16.54;61.81
6567;BME280;3317;43.994;22.878;2022-10-26T04:28:04;101478.63;;;16.52;62.03
6567;BME280;3317;43.994;22.878;2022-10-26T04:30:34;101483.44;;;16.50;62.18
6567;BME280;3317;43.994;22.878;2022-10-26T04:33:01;101479.31;;;16.54;61.12
6567;BME280;3317;43.994;22.878;2022-10-26T04:35:29;101468.22;;;16.47;60.83
6567;BME280;3317;43.994;22.878;2022-10-26T04:37:57;101482.03;;;16.54;61.53
6567;BME280;3317;43.994;22.878;2022-10-26T04:40:24;101482.72;;;16.56;61.08
6567;BME280;3317;43.994;22.878;2022-10-26T04:42:51;101483.94;;;16.53;61.48
6567;BME280;3317;43.994;22.878;2022-10-26T04:45:19;101481.38;;;16.52;61.67
6567;BME280;3317;43.994;22.878;2022-10-26T04:47:58;101484.25;;;16.50;61.94
6567;BME280;3317;43.994;22.878;2022-10-26T04:50:25;101488.03;;;16.49;61.57
6567;BME280;3317;43.994;22.878;2022-10-26T04:52:53;101488.38;;;16.46;62.04
6567;BME280;3317;43.994;22.878;2022-10-26T04:55:20;101485.84;;;16.44;62.53
6567;BME280;3317;43.994;22.878;2022-10-26T04:57:47;101490.81;;;16.41;62.35
6567;BME280;3317;43.994;22.878;2022-10-26T05:00:16;101472.19;;;16.28;62.58
6567;BME280;3317;43.994;22.878;2022-10-26T05:02:43;101495.44;;;16.32;62.89
6567;BME280;3317;43.994;22.878;2022-10-26T05:05:12;101505.69;;;16.30;63.12
6567;BME280;3317;43.994;22.878;2022-10-26T05:07:40;101507.94;;;16.26;63.20
6567;BME280;3317;43.994;22.878;2022-10-26T05:10:07;101508.75;;;16.27;62.65
6567;BME280;3317;43.994;22.878;2022-10-26T05:12:35;101500.56;;;16.27;62.24
6567;BME280;3317;43.994;22.878;2022-10-26T05:15:02;101508.59;;;16.28;62.58
6567;BME280;3317;43.994;22.878;2022-10-26T05:17:29;101509.44;;;16.29;62.97
6567;BME280;3317;43.994;22.878;2022-10-26T05:19:56;101509.44;;;16.29;63.15
6567;BME280;3317;43.994;22.878;2022-10-26T05:22:26;101505.00;;;16.28;63.40
6567;BME280;3317;43.994;22.878;2022-10-26T05:24:53;101460.28;;;15.96;63.50
6567;BME280;3317;43.994;22.878;2022-10-26T05:27:20;101507.56;;;16.29;63.30
6567;BME280;3317;43.994;22.878;2022-10-26T05:29:48;101515.09;;;16.27;63.73
6567;BME280;3317;43.994;22.878;2022-10-26T05:32:16;101511.50;;;16.27;63.69
6567;BME280;3317;43.994;22.878;2022-10-26T05:34:44;101514.91;;;16.29;63.69
6567;BME280;3317;43.994;22.878;2022-10-26T05:37:11;101513.41;;;16.26;63.80
6567;BME280;3317;43.994;22.878;2022-10-26T05:39:39;101520.91;;;16.32;63.69
6567;BME280;3317;43.994;22.878;2022-10-26T05:42:08;101526.53;;;16.31;63.84
6567;BME280;3317;43.994;22.878;2022-10-26T05:44:34;101527.03;;;16.35;63.98
6567;BME280;3317;43.994;22.878;2022-10-26T05:47:01;101524.16;;;16.36;63.81
6567;BME280;3317;43.994;22.878;2022-10-26T05:49:28;101526.19;;;16.42;63.62
6567;BME280;3317;43.994;22.878;2022-10-26T05:51:55;101540.19;;;16.47;63.47
6567;BME280;3317;43.994;22.878;2022-10-26T05:54:22;101540.53;;;16.53;63.22
6567;BME280;3317;43.994;22.878;2022-10-26T05:56:51;101529.06;;;16.57;63.20
6567;BME280;3317;43.994;22.878;2022-10-26T05:59:19;101529.56;;;16.61;62.93
6567;BME280;3317;43.994;22.878;2022-10-26T06:01:56;101532.28;;;16.69;62.93
6567;BME280;3317;43.994;22.878;2022-10-26T06:04:31;101548.66;;;16.86;62.48
6567;BME280;3317;43.994;22.878;2022-10-26T06:07:06;101526.41;;;16.81;62.36
6567;BME280;3317;43.994;22.878;2022-10-26T06:09:36;101552.41;;;17.01;62.09
6567;BME280;3317;43.994;22.878;2022-10-26T06:12:05;101552.91;;;17.05;61.73
6567;BME280;3317;43.994;22.878;2022-10-26T06:14:34;101562.09;;;17.21;61.65
6567;BME280;3317;43.994;22.878;2022-10-26T06:17:16;101560.16;;;17.29;61.40
6567;BME280;3317;43.994;22.878;2022-10-26T06:19:54;101560.97;;;17.38;61.07
6567;BME280;3317;43.994;22.878;2022-10-26T06:22:37;101565.53;;;17.46;60.68
6567;BME280;3317;43.994;22.878;2022-10-26T06:25:15;101572.69;;;17.55;60.53
6567;BME280;3317;43.994;22.878;2022-10-26T06:27:52;101567.19;;;17.64;60.53
6567;BME280;3317;43.994;22.878;2022-10-26T06:30:21;101579.22;;;17.78;60.27
6567;BME280;3317;43.994;22.878;2022-10-26T06:32:49;101574.38;;;17.88;60.19
6567;BME280;3317;43.994;22.878;2022-10-26T06:35:26;101574.47;;;18.03;59.60
6567;BME280;3317;43.994;22.878;2022-10-26T06:38:01;101583.50;;;18.12;58.87
6567;BME280;3317;43.994;22.878;2022-10-26T06:40:30;101575.00;;;18.22;58.57
6567;BME280;3317;43.994;22.878;2022-10-26T06:43:00;101570.13;;;18.32;58.24
6567;BME280;3317;43.994;22.878;2022-10-26T06:45:29;101573.47;;;18.42;57.92
6567;BME280;3317;43.994;22.878;2022-10-26T06:48:01;101567.53;;;18.54;57.59
6567;BME280;3317;43.994;22.878;2022-10-26T06:50:34;101580.81;;;18.65;57.35
6567;BME280;3317;43.994;22.878;2022-10-26T06:53:15;101588.75;;;18.75;57.24
6567;BME280;3317;43.994;22.878;2022-10-26T06:55:47;101593.13;;;18.84;56.96
6567;BME280;3317;43.994;22.878;2022-10-26T06:58:18;101599.16;;;18.95;56.49
6567;BME280;3317;43.994;22.878;2022-10-26T07:00:47;101589.28;;;19.09;56.61
6567;BME280;3317;43.994;22.878;2022-10-26T07:03:15;101593.25;;;19.21;56.08
6567;BME280;3317;43.994;22.878;2022-10-26T07:05:43;101586.97;;;19.27;55.81
6567;BME280;3317;43.994;22.878;2022-10-26T07:08:10;101589.88;;;19.41;55.53
6567;BME280;3317;43.994;22.878;2022-10-26T07:10:37;101608.28;;;19.55;55.21
6567;BME280;3317;43.994;22.878;2022-10-26T07:13:04;101609.19;;;19.63;54.79
6567;BME280;3317;43.994;22.878;2022-10-26T07:15:33;101600.06;;;19.77;54.33
6567;BME280;3317;43.994;22.878;2022-10-26T07:18:01;101591.03;;;19.83;53.83
6567;BME280;3317;43.994;22.878;2022-10-26T07:20:31;101600.94;;;20.00;53.39
6567;BME280;3317;43.994;22.878;2022-10-26T07:22:58;101594.84;;;20.04;52.89
6567;BME280;3317;43.994;22.878;2022-10-26T07:25:27;101597.75;;;20.18;52.28
6567;BME280;3317;43.994;22.878;2022-10-26T07:27:56;101601.00;;;20.28;52.04
6567;BME280;3317;43.994;22.878;2022-10-26T07:30:25;101602.00;;;20.42;51.54
6567;BME280;3317;43.994;22.878;2022-10-26T07:32:59;101583.84;;;20.48;51.03
6567;BME280;3317;43.994;22.878;2022-10-26T07:35:26;101593.69;;;20.64;50.53
6567;BME280;3317;43.994;22.878;2022-10-26T07:37:56;101597.81;;;20.75;50.17
6567;BME280;3317;43.994;22.878;2022-10-26T07:40:23;101593.66;;;20.86;49.78
6567;BME280;3317;43.994;22.878;2022-10-26T07:42:50;101595.63;;;20.92;49.33
6567;BME280;3317;43.994;22.878;2022-10-26T07:45:18;101543.34;;;20.77;48.95
6567;BME280;3317;43.994;22.878;2022-10-26T07:47:45;101599.34;;;21.19;48.84
6567;BME280;3317;43.994;22.878;2022-10-26T07:50:14;101595.19;;;21.30;48.63
6567;BME280;3317;43.994;22.878;2022-10-26T07:52:41;101554.16;;;21.14;48.28
6567;BME280;3317;43.994;22.878;2022-10-26T07:55:09;101592.91;;;21.47;47.65
6567;BME280;3317;43.994;22.878;2022-10-26T07:57:37;101601.66;;;21.58;47.84
6567;BME280;3317;43.994;22.878;2022-10-26T08:00:06;101598.97;;;21.71;47.35
6567;BME280;3317;43.994;22.878;2022-10-26T08:02:34;101587.50;;;21.74;46.98
6567;BME280;3317;43.994;22.878;2022-10-26T08:05:02;101597.94;;;21.92;47.08
6567;BME280;3317;43.994;22.878;2022-10-26T08:07:30;101592.47;;;22.06;46.71
6567;BME280;3317;43.994;22.878;2022-10-26T08:09:58;101573.56;;;22.09;46.91
6567;BME280;3317;43.994;22.878;2022-10-26T08:12:28;101597.78;;;22.28;46.58
6567;BME280;3317;43.994;22.878;2022-10-26T08:14:55;101589.09;;;22.44;46.55
6567;BME280;3317;43.994;22.878;2022-10-26T08:17:22;101593.16;;;22.55;45.42
6567;BME280;3317;43.994;22.878;2022-10-26T08:19:49;101588.69;;;22.68;45.50
6567;BME280;3317;43.994;22.878;2022-10-26T08:22:17;101586.56;;;22.76;44.57
6567;BME280;3317;43.994;22.878;2022-10-26T08:24:46;101586.72;;;22.88;44.72
6567;BME280;3317;43.994;22.878;2022-10-26T08:27:13;101583.31;;;23.00;44.66
6567;BME280;3317;43.994;22.878;2022-10-26T08:29:40;101583.50;;;23.12;43.78
6567;BME280;3317;43.994;22.878;2022-10-26T08:32:08;101578.97;;;23.17;43.64
6567;BME280;3317;43.994;22.878;2022-10-26T08:34:35;101585.34;;;23.38;43.86
6567;BME280;3317;43.994;22.878;2022-10-26T08:37:02;101576.13;;;23.51;43.51
6567;BME280;3317;43.994;22.878;2022-10-26T08:39:29;101572.47;;;23.57;42.84
6567;BME280;3317;43.994;22.878;2022-10-26T08:42:01;101573.69;;;23.68;42.38
6567;BME280;3317;43.994;22.878;2022-10-26T08:44:34;101578.34;;;23.74;41.96
6567;BME280;3317;43.994;22.878;2022-10-26T08:47:08;101574.88;;;23.86;41.43
6567;BME280;3317;43.994;22.878;2022-10-26T08:49:40;101569.91;;;23.95;41.51
6567;BME280;3317;43.994;22.878;2022-10-26T08:52:13;101588.38;;;24.08;41.31
6567;BME280;3317;43.994;22.878;2022-10-26T08:54:44;101586.56;;;24.20;41.57
6567;BME280;3317;43.994;22.878;2022-10-26T08:57:20;101591.84;;;24.28;41.02
6567;BME280;3317;43.994;22.878;2022-10-26T08:59:53;101588.97;;;24.42;41.25
6567;BME280;3317;43.994;22.878;2022-10-26T09:02:22;101589.28;;;24.52;41.10
6567;BME280;3317;43.994;22.878;2022-10-26T09:04:50;101589.69;;;24.56;39.30
6567;BME280;3317;43.994;22.878;2022-10-26T09:07:35;101595.59;;;24.59;39.48
6567;BME280;3317;43.994;22.878;2022-10-26T09:10:23;101595.94;;;24.70;39.82
6567;BME280;3317;43.994;22.878;2022-10-26T09:13:02;101598.88;;;24.82;39.89
6567;BME280;3317;43.994;22.878;2022-10-26T09:15:41;101599.63;;;24.89;38.89
6567;BME280;3317;43.994;22.878;2022-10-26T09:18:22;101591.22;;;24.96;38.52
6567;BME280;3317;43.994;22.878;2022-10-26T09:21:04;101594.31;;;25.06;38.67
6567;BME280;3317;43.994;22.878;2022-10-26T09:23:53;101575.22;;;25.16;39.49
6567;BME280;3317;43.994;22.878;2022-10-26T09:26:32;101600.63;;;25.32;37.83
6567;BME280;3317;43.994;22.878;2022-10-26T09:29:10;101594.41;;;25.37;37.33
6567;BME280;3317;43.994;22.878;2022-10-26T09:31:41;101597.09;;;25.43;36.67
6567;BME280;3317;43.994;22.878;2022-10-26T09:34:17;101590.09;;;25.59;38.17
6567;BME280;3317;43.994;22.878;2022-10-26T09:36:52;101593.50;;;25.73;37.56
6567;BME280;3317;43.994;22.878;2022-10-26T09:39:23;101591.78;;;25.91;38.39
6567;BME280;3317;43.994;22.878;2022-10-26T09:41:55;101596.13;;;25.99;36.62
6567;BME280;3317;43.994;22.878;2022-10-26T09:44:30;101603.19;;;26.13;36.91
6567;BME280;3317;43.994;22.878;2022-10-26T09:47:05;101590.41;;;26.24;36.83
6567;BME280;3317;43.994;22.878;2022-10-26T09:49:42;101587.91;;;26.35;35.94
6567;BME280;3317;43.994;22.878;2022-10-26T09:52:13;101597.09;;;26.47;37.21
6567;BME280;3317;43.994;22.878;2022-10-26T09:54:42;101592.38;;;26.48;34.77
6567;BME280;3317;43.994;22.878;2022-10-26T09:57:12;101590.69;;;26.35;34.13
6567;BME280;3317;43.994;22.878;2022-10-26T09:59:42;101591.88;;;26.39;34.92
6567;BME280;3317;43.994;22.878;2022-10-26T10:02:34;101589.84;;;26.46;35.08
6567;BME280;3317;43.994;22.878;2022-10-26T10:05:02;101590.09;;;26.56;34.88
6567;BME280;3317;43.994;22.878;2022-10-26T10:07:29;101575.09;;;26.69;35.06
6567;BME280;3317;43.994;22.878;2022-10-26T10:10:10;101582.50;;;26.76;33.55
6567;BME280;3317;43.994;22.878;2022-10-26T10:12:40;101582.09;;;26.84;33.61
6567;BME280;3317;43.994;22.878;2022-10-26T10:15:16;101574.88;;;26.95;35.14
6567;BME280;3317;43.994;22.878;2022-10-26T10:17:48;101576.03;;;27.11;34.31
6567;BME280;3317;43.994;22.878;2022-10-26T10:20:19;101573.97;;;27.18;33.02
6567;BME280;3317;43.994;22.878;2022-10-26T10:22:57;101562.34;;;27.21;33.42
6567;BME280;3317;43.994;22.878;2022-10-26T10:25:32;101587.47;;;27.38;33.77
6567;BME280;3317;43.994;22.878;2022-10-26T10:28:00;101573.75;;;27.49;33.20
6567;BME280;3317;43.994;22.878;2022-10-26T10:30:30;101570.00;;;27.55;32.19
6567;BME280;3317;43.994;22.878;2022-10-26T10:33:06;101562.94;;;27.64;33.07
6567;BME280;3317;43.994;22.878;2022-10-26T10:35:34;101565.94;;;27.75;33.48
6567;BME280;3317;43.994;22.878;2022-10-26T10:38:01;101558.88;;;27.84;32.73
6567;BME280;3317;43.994;22.878;2022-10-26T10:40:30;101554.63;;;27.81;31.61
6567;BME280;3317;43.994;22.878;2022-10-26T10:43:09;101552.28;;;27.90;31.19
6567;BME280;3317;43.994;22.878;2022-10-26T10:45:39;101550.59;;;27.89;30.69
6567;BME280;3317;43.994;22.878;2022-10-26T10:48:15;101548.63;;;27.90;30.36
6567;BME280;3317;43.994;22.878;2022-10-26T10:50:52;101550.59;;;27.89;30.79
6567;BME280;3317;43.994;22.878;2022-10-26T10:53:24;101548.91;;;27.88;30.38
6567;BME280;3317;43.994;22.878;2022-10-26T10:56:08;101526.03;;;27.86;30.62
6567;BME280;3317;43.994;22.878;2022-10-26T10:58:45;101537.59;;;27.95;31.39
6567;BME280;3317;43.994;22.878;2022-10-26T11:01:20;101537.44;;;28.02;31.97
6567;BME280;3317;43.994;22.878;2022-10-26T11:04:19;101531.78;;;28.14;32.68
6567;BME280;3317;43.994;22.878;2022-10-26T11:06:56;101521.94;;;28.23;32.13
6567;BME280;3317;43.994;22.878;2022-10-26T11:09:27;101518.81;;;28.19;31.05
6567;BME280;3317;43.994;22.878;2022-10-26T11:11:59;101524.03;;;28.33;32.16
6567;BME280;3317;43.994;22.878;2022-10-26T11:14:30;101528.59;;;28.39;31.55
6567;BME280;3317;43.994;22.878;2022-10-26T11:17:04;101525.28;;;28.42;30.18
6567;BME280;3317;43.994;22.878;2022-10-26T11:19:36;101520.81;;;28.41;29.47
6567;BME280;3317;43.994;22.878;2022-10-26T11:22:12;101520.56;;;28.43;29.78
6567;BME280;3317;43.994;22.878;2022-10-26T11:24:43;101523.09;;;28.44;30.00
6567;BME280;3317;43.994;22.878;2022-10-26T11:27:14;101525.88;;;28.44;29.99
6567;BME280;3317;43.994;22.878;2022-10-26T11:29:46;101519.88;;;28.52;31.54
6567;BME280;3317;43.994;22.878;2022-10-26T11:32:20;101515.25;;;28.41;29.92
6567;BME280;3317;43.994;22.878;2022-10-26T11:34:54;101520.81;;;28.41;28.98
6567;BME280;3317;43.994;22.878;2022-10-26T11:37:31;101531.97;;;28.41;30.26
6567;BME280;3317;43.994;22.878;2022-10-26T11:40:17;101520.22;;;28.39;29.15
6567;BME280;3317;43.994;22.878;2022-10-26T11:42:53;101511.28;;;28.37;28.62
6567;BME280;3317;43.994;22.878;2022-10-26T11:45:26;101516.34;;;28.40;28.64
6567;BME280;3317;43.994;22.878;2022-10-26T11:48:00;101506.88;;;28.41;30.71
6567;BME280;3317;43.994;22.878;2022-10-26T11:50:33;101518.69;;;28.48;30.09
6567;BME280;3317;43.994;22.878;2022-10-26T11:53:08;101511.75;;;28.51;29.84
6567;BME280;3317;43.994;22.878;2022-10-26T11:55:38;101515.59;;;28.45;27.38
6567;BME280;3317;43.994;22.878;2022-10-26T11:58:07;101497.25;;;28.32;27.36
6567;BME280;3317;43.994;22.878;2022-10-26T12:00:42;101512.44;;;28.41;28.33
6567;BME280;3317;43.994;22.878;2022-10-26T12:03:14;101502.25;;;28.30;27.16
6567;BME280;3317;43.994;22.878;2022-10-26T12:05:47;101509.16;;;28.27;27.09
6567;BME280;3317;43.994;22.878;2022-10-26T12:08:19;101481.22;;;28.05;27.79
6567;BME280;3317;43.994;22.878;2022-10-26T12:10:54;101513.31;;;28.24;29.08
6567;BME280;3317;43.994;22.878;2022-10-26T12:13:27;101515.78;;;28.21;27.63
6567;BME280;3317;43.994;22.878;2022-10-26T12:16:00;101501.13;;;28.14;26.23
6567;BME280;3317;43.994;22.878;2022-10-26T12:18:37;101463.16;;;27.73;27.49
6567;BME280;3317;43.994;22.878;2022-10-26T12:21:07;101509.00;;;28.00;28.43
6567;BME280;3317;43.994;22.878;2022-10-26T12:23:37;101505.19;;;27.89;27.49
6567;BME280;3317;43.994;22.878;2022-10-26T12:26:36;101509.81;;;27.83;26.68
6567;BME280;3317;43.994;22.878;2022-10-26T12:29:23;101498.53;;;27.73;27.27
6567;BME280;3317;43.994;22.878;2022-10-26T12:31:50;101486.38;;;27.50;27.62
6567;BME280;3317;43.994;22.878;2022-10-26T12:34:23;101499.59;;;27.54;28.70
6567;BME280;3317;43.994;22.878;2022-10-26T12:37:21;101500.19;;;27.45;28.14
6567;BME280;3317;43.994;22.878;2022-10-26T12:39:48;101499.75;;;27.36;28.02
6567;BME280;3317;43.994;22.878;2022-10-26T12:42:28;101489.19;;;27.21;28.03
6567;BME280;3317;43.994;22.878;2022-10-26T12:45:18;101494.41;;;27.17;28.78
6567;BME280;3317;43.994;22.878;2022-10-26T12:48:02;101505.06;;;27.08;28.38
6567;BME280;3317;43.994;22.878;2022-10-26T12:50:31;101493.13;;;26.96;28.45
6567;BME280;3317;43.994;22.878;2022-10-26T12:53:04;101494.97;;;26.90;30.65
6567;BME280;3317;43.994;22.878;2022-10-26T12:55:57;101502.31;;;26.84;31.40
6567;BME280;3317;43.994;22.878;2022-10-26T12:58:41;101495.56;;;26.68;28.54
6567;BME280;3317;43.994;22.878;2022-10-26T13:04:22;101499.38;;;26.38;30.79
6567;BME280;3317;43.994;22.878;2022-10-26T13:07:07;101499.00;;;26.35;30.23
6567;BME280;3317;43.994;22.878;2022-10-26T13:09:37;101497.38;;;26.15;28.07
6567;BME280;3317;43.994;22.878;2022-10-26T13:12:04;101496.06;;;26.06;30.02
6567;BME280;3317;43.994;22.878;2022-10-26T13:14:34;101495.31;;;25.98;30.86
6567;BME280;3317;43.994;22.878;2022-10-26T13:17:03;101498.19;;;25.92;30.30
6567;BME280;3317;43.994;22.878;2022-10-26T13:19:40;101495.53;;;25.85;29.55
6567;BME280;3317;43.994;22.878;2022-10-26T13:22:14;101498.19;;;25.80;31.32
6567;BME280;3317;43.994;22.878;2022-10-26T13:24:47;101484.66;;;25.71;32.05
6567;BME280;3317;43.994;22.878;2022-10-26T13:27:43;101495.97;;;25.70;30.45
6567;BME280;3317;43.994;22.878;2022-10-26T13:30:43;101494.25;;;25.57;29.54